sensor_id;sensor_type;location;lat;lon;timestamp;P1;durP1;ratioP1;P2;durP2;ratioP2
5333;SDS011;2689;50.954;7.116;2023-08-24T00:00:17;7.17;;;4.20;;
5333;SDS011;2689;50.954;7.116;2023-08-24T00:02:44;7.40;;;3.73;;
5333;SDS011;2689;50.954;7.116;2023-08-24T00:05:11;10.30;;;4.80;;
5333;SDS011;2689;50.954;7.116;2023-08-24T00:07:39;6.70;;;4.23;;
5333;SDS011;2689;50.954;7.116;2023-08-24T00:10:07;8.30;;;4.67;;
5333;SDS011;2689;50.954;7.116;2023-08-24T00:12:34;11.17;;;4.60;;
5333;SDS011;2689;50.954;7.116;2023-08-24T00:15:01;5.90;;;4.33;;
5333;SDS011;2689;50.954;7.116;2023-08-24T00:17:29;8.90;;;4.27;;
5333;SDS011;2689;50.954;7.116;2023-08-24T00:19:56;5.97;;;4.20;;
5333;SDS011;2689;50.954;7.116;2023-08-24T00:22:23;9.63;;;4.73;;
5333;SDS011;2689;50.954;7.116;2023-08-24T00:24:49;9.83;;;5.27;;
5333;SDS011;2689;50.954;7.116;2023-08-24T00:27:17;6.43;;;4.17;;
5333;SDS011;2689;50.954;7.116;2023-08-24T00:29:44;5.20;;;4.70;;
5333;SDS011;2689;50.954;7.116;2023-08-24T00:32:13;7.40;;;4.00;;
5333;SDS011;2689;50.954;7.116;2023-08-24T00:34:40;5.40;;;4.07;;
5333;SDS011;2689;50.954;7.116;2023-08-24T00:37:07;6.13;;;3.73;;
5333;SDS011;2689;50.954;7.116;2023-08-24T00:39:33;7.77;;;4.30;;
5333;SDS011;2689;50.954;7.116;2023-08-24T00:42:03;6.63;;;4.13;;
5333;SDS011;2689;50.954;7.116;2023-08-24T00:44:32;5.40;;;4.60;;
5333;SDS011;2689;50.954;7.116;2023-08-24T00:46:58;9.10;;;4.17;;
5333;SDS011;2689;50.954;7.116;2023-08-24T00:49:26;9.67;;;4.60;;
5333;SDS011;2689;50.954;7.116;2023-08-24T00:51:53;6.57;;;5.03;;
5333;SDS011;2689;50.954;7.116;2023-08-24T00:54:19;6.50;;;4.57;;
5333;SDS011;2689;50.954;7.116;2023-08-24T00:56:46;8.60;;;4.63;;
5333;SDS011;2689;50.954;7.116;2023-08-24T00:59:13;6.27;;;4.07;;
5333;SDS011;2689;50.954;7.116;2023-08-24T01:01:41;11.77;;;4.37;;
5333;SDS011;2689;50.954;7.116;2023-08-24T01:04:11;8.17;;;4.30;;
5333;SDS011;2689;50.954;7.116;2023-08-24T01:06:38;13.43;;;4.60;;
5333;SDS011;2689;50.954;7.116;2023-08-24T01:09:04;6.30;;;3.90;;
5333;SDS011;2689;50.954;7.116;2023-08-24T01:11:48;6.77;;;4.13;;
5333;SDS011;2689;50.954;7.116;2023-08-24T01:14:25;7.23;;;4.63;;
5333;SDS011;2689;50.954;7.116;2023-08-24T01:17:04;9.17;;;4.30;;
5333;SDS011;2689;50.954;7.116;2023-08-24T01:19:37;8.27;;;4.40;;
5333;SDS011;2689;50.954;7.116;2023-08-24T01:22:08;6.00;;;4.07;;
5333;SDS011;2689;50.954;7.116;2023-08-24T01:24:46;9.43;;;4.60;;
5333;SDS011;2689;50.954;7.116;2023-08-24T01:27:20;9.00;;;4.20;;
5333;SDS011;2689;50.954;7.116;2023-08-24T01:29:47;6.30;;;4.10;;
5333;SDS011;2689;50.954;7.116;2023-08-24T01:32:17;6.67;;;4.40;;
5333;SDS011;2689;50.954;7.116;2023-08-24T01:34:44;5.27;;;3.70;;
5333;SDS011;2689;50.954;7.116;2023-08-24T01:37:11;8.73;;;5.07;;
5333;SDS011;2689;50.954;7.116;2023-08-24T01:39:40;5.20;;;3.90;;
5333;SDS011;2689;50.954;7.116;2023-08-24T01:42:17;5.83;;;4.20;;
5333;SDS011;2689;50.954;7.116;2023-08-24T01:44:50;6.10;;;4.50;;
5333;SDS011;2689;50.954;7.116;2023-08-24T01:47:18;7.80;;;4.37;;
5333;SDS011;2689;50.954;7.116;2023-08-24T01:49:47;9.60;;;4.80;;
5333;SDS011;2689;50.954;7.116;2023-08-24T01:52:14;6.03;;;4.50;;
5333;SDS011;2689;50.954;7.116;2023-08-24T01:54:41;7.73;;;4.40;;
5333;SDS011;2689;50.954;7.116;2023-08-24T01:57:11;5.70;;;4.00;;
5333;SDS011;2689;50.954;7.116;2023-08-24T01:59:38;7.43;;;4.07;;
5333;SDS011;2689;50.954;7.116;2023-08-24T02:02:06;6.50;;;4.53;;
5333;SDS011;2689;50.954;7.116;2023-08-24T02:04:33;5.77;;;4.00;;
5333;SDS011;2689;50.954;7.116;2023-08-24T02:07:01;7.23;;;4.63;;
5333;SDS011;2689;50.954;7.116;2023-08-24T02:09:28;7.30;;;4.40;;
5333;SDS011;2689;50.954;7.116;2023-08-24T02:11:55;7.40;;;4.30;;
5333;SDS011;2689;50.954;7.116;2023-08-24T02:14:22;10.27;;;5.47;;
5333;SDS011;2689;50.954;7.116;2023-08-24T02:16:48;10.43;;;4.60;;
5333;SDS011;2689;50.954;7.116;2023-08-24T02:19:16;7.03;;;4.30;;
5333;SDS011;2689;50.954;7.116;2023-08-24T02:21:43;6.63;;;4.10;;
5333;SDS011;2689;50.954;7.116;2023-08-24T02:24:10;7.80;;;4.30;;
5333;SDS011;2689;50.954;7.116;2023-08-24T02:26:37;7.37;;;4.90;;
5333;SDS011;2689;50.954;7.116;2023-08-24T02:29:03;5.43;;;4.00;;
5333;SDS011;2689;50.954;7.116;2023-08-24T02:31:31;8.03;;;4.37;;
5333;SDS011;2689;50.954;7.116;2023-08-24T02:33:57;7.33;;;4.77;;
5333;SDS011;2689;50.954;7.116;2023-08-24T02:36:26;8.47;;;4.80;;
5333;SDS011;2689;50.954;7.116;2023-08-24T02:38:53;7.43;;;4.63;;
5333;SDS011;2689;50.954;7.116;2023-08-24T02:41:21;4.93;;;4.37;;
5333;SDS011;2689;50.954;7.116;2023-08-24T02:43:48;9.07;;;4.70;;
5333;SDS011;2689;50.954;7.116;2023-08-24T02:46:15;6.57;;;4.00;;
5333;SDS011;2689;50.954;7.116;2023-08-24T02:48:43;5.83;;;3.83;;
5333;SDS011;2689;50.954;7.116;2023-08-24T02:51:10;8.03;;;4.43;;
5333;SDS011;2689;50.954;7.116;2023-08-24T02:53:39;6.17;;;3.90;;
5333;SDS011;2689;50.954;7.116;2023-08-24T02:56:06;8.10;;;4.70;;
5333;SDS011;2689;50.954;7.116;2023-08-24T02:58:32;7.17;;;4.60;;
5333;SDS011;2689;50.954;7.116;2023-08-24T03:01:03;6.57;;;4.63;;
5333;SDS011;2689;50.954;7.116;2023-08-24T03:03:31;8.20;;;4.33;;
5333;SDS011;2689;50.954;7.116;2023-08-24T03:05:59;7.07;;;4.40;;
5333;SDS011;2689;50.954;7.116;2023-08-24T03:08:27;7.87;;;4.60;;
5333;SDS011;2689;50.954;7.116;2023-08-24T03:10:55;6.73;;;4.33;;
5333;SDS011;2689;50.954;7.116;2023-08-24T03:13:22;10.07;;;4.17;;
5333;SDS011;2689;50.954;7.116;2023-08-24T03:15:49;4.97;;;3.87;;
5333;SDS011;2689;50.954;7.116;2023-08-24T03:18:17;7.00;;;3.87;;
5333;SDS011;2689;50.954;7.116;2023-08-24T03:20:44;7.60;;;4.13;;
5333;SDS011;2689;50.954;7.116;2023-08-24T03:23:12;7.70;;;4.07;;
5333;SDS011;2689;50.954;7.116;2023-08-24T03:25:42;7.43;;;4.60;;
5333;SDS011;2689;50.954;7.116;2023-08-24T03:28:10;10.60;;;4.53;;
5333;SDS011;2689;50.954;7.116;2023-08-24T03:30:37;6.03;;;3.93;;
5333;SDS011;2689;50.954;7.116;2023-08-24T03:33:05;6.40;;;3.97;;
5333;SDS011;2689;50.954;7.116;2023-08-24T03:35:32;4.83;;;4.20;;
5333;SDS011;2689;50.954;7.116;2023-08-24T03:37:59;5.03;;;3.90;;
5333;SDS011;2689;50.954;7.116;2023-08-24T03:40:26;7.10;;;4.40;;
5333;SDS011;2689;50.954;7.116;2023-08-24T03:42:53;4.90;;;4.10;;
5333;SDS011;2689;50.954;7.116;2023-08-24T03:45:21;5.00;;;4.13;;
5333;SDS011;2689;50.954;7.116;2023-08-24T03:47:49;9.43;;;4.47;;
5333;SDS011;2689;50.954;7.116;2023-08-24T03:50:17;8.37;;;4.03;;
5333;SDS011;2689;50.954;7.116;2023-08-24T03:52:44;7.00;;;4.50;;
5333;SDS011;2689;50.954;7.116;2023-08-24T03:55:10;6.77;;;3.87;;
5333;SDS011;2689;50.954;7.116;2023-08-24T03:57:38;6.83;;;4.20;;
5333;SDS011;2689;50.954;7.116;2023-08-24T04:00:07;6.20;;;4.87;;
5333;SDS011;2689;50.954;7.116;2023-08-24T04:02:38;7.60;;;4.70;;
5333;SDS011;2689;50.954;7.116;2023-08-24T04:05:06;6.00;;;4.40;;
5333;SDS011;2689;50.954;7.116;2023-08-24T04:07:35;4.90;;;4.27;;
5333;SDS011;2689;50.954;7.116;2023-08-24T04:10:04;6.23;;;5.27;;
5333;SDS011;2689;50.954;7.116;2023-08-24T04:12:32;6.30;;;4.20;;
5333;SDS011;2689;50.954;7.116;2023-08-24T04:14:59;8.30;;;4.20;;
5333;SDS011;2689;50.954;7.116;2023-08-24T04:17:25;5.60;;;4.40;;
5333;SDS011;2689;50.954;7.116;2023-08-24T04:19:53;8.20;;;4.20;;
5333;SDS011;2689;50.954;7.116;2023-08-24T04:22:20;7.37;;;4.17;;
5333;SDS011;2689;50.954;7.116;2023-08-24T04:24:47;5.93;;;4.33;;
5333;SDS011;2689;50.954;7.116;2023-08-24T04:27:14;6.10;;;4.90;;
5333;SDS011;2689;50.954;7.116;2023-08-24T04:29:40;8.90;;;4.37;;
5333;SDS011;2689;50.954;7.116;2023-08-24T04:32:13;6.53;;;4.30;;
5333;SDS011;2689;50.954;7.116;2023-08-24T04:34:40;8.03;;;4.10;;
5333;SDS011;2689;50.954;7.116;2023-08-24T04:37:08;8.00;;;4.57;;
5333;SDS011;2689;50.954;7.116;2023-08-24T04:39:35;7.50;;;4.37;;
5333;SDS011;2689;50.954;7.116;2023-08-24T04:42:05;4.80;;;4.07;;
5333;SDS011;2689;50.954;7.116;2023-08-24T04:44:32;9.67;;;4.40;;
5333;SDS011;2689;50.954;7.116;2023-08-24T04:46:59;8.70;;;4.70;;
5333;SDS011;2689;50.954;7.116;2023-08-24T04:49:25;10.40;;;4.80;;
5333;SDS011;2689;50.954;7.116;2023-08-24T04:51:53;8.60;;;4.43;;
5333;SDS011;2689;50.954;7.116;2023-08-24T04:54:21;7.00;;;4.70;;
5333;SDS011;2689;50.954;7.116;2023-08-24T04:56:48;9.60;;;4.70;;
5333;SDS011;2689;50.954;7.116;2023-08-24T04:59:15;7.30;;;4.60;;
5333;SDS011;2689;50.954;7.116;2023-08-24T05:01:41;6.30;;;4.60;;
5333;SDS011;2689;50.954;7.116;2023-08-24T05:04:11;6.03;;;4.30;;
5333;SDS011;2689;50.954;7.116;2023-08-24T05:06:37;8.83;;;4.57;;
5333;SDS011;2689;50.954;7.116;2023-08-24T05:09:05;10.20;;;4.47;;
5333;SDS011;2689;50.954;7.116;2023-08-24T05:11:36;7.20;;;4.80;;
5333;SDS011;2689;50.954;7.116;2023-08-24T05:14:02;10.93;;;5.17;;
5333;SDS011;2689;50.954;7.116;2023-08-24T05:16:29;6.00;;;4.40;;
5333;SDS011;2689;50.954;7.116;2023-08-24T05:18:56;14.93;;;4.60;;
5333;SDS011;2689;50.954;7.116;2023-08-24T05:21:23;9.10;;;4.77;;
5333;SDS011;2689;50.954;7.116;2023-08-24T05:23:50;9.63;;;4.70;;
5333;SDS011;2689;50.954;7.116;2023-08-24T05:26:16;8.33;;;4.73;;
5333;SDS011;2689;50.954;7.116;2023-08-24T05:28:56;10.60;;;5.03;;
5333;SDS011;2689;50.954;7.116;2023-08-24T05:31:23;7.27;;;4.63;;
5333;SDS011;2689;50.954;7.116;2023-08-24T05:33:50;7.03;;;4.87;;
5333;SDS011;2689;50.954;7.116;2023-08-24T05:36:16;5.90;;;4.40;;
5333;SDS011;2689;50.954;7.116;2023-08-24T05:38:43;7.53;;;4.70;;
5333;SDS011;2689;50.954;7.116;2023-08-24T05:41:12;5.57;;;4.43;;
5333;SDS011;2689;50.954;7.116;2023-08-24T05:43:39;9.63;;;4.70;;
5333;SDS011;2689;50.954;7.116;2023-08-24T05:46:07;8.73;;;5.10;;
5333;SDS011;2689;50.954;7.116;2023-08-24T05:48:34;6.17;;;5.00;;
5333;SDS011;2689;50.954;7.116;2023-08-24T05:51:00;11.10;;;4.73;;
5333;SDS011;2689;50.954;7.116;2023-08-24T05:53:27;7.93;;;5.50;;
5333;SDS011;2689;50.954;7.116;2023-08-24T05:55:57;6.53;;;4.77;;
5333;SDS011;2689;50.954;7.116;2023-08-24T05:58:24;7.60;;;4.77;;
5333;SDS011;2689;50.954;7.116;2023-08-24T06:00:55;5.43;;;4.93;;
5333;SDS011;2689;50.954;7.116;2023-08-24T06:03:24;6.40;;;4.97;;
5333;SDS011;2689;50.954;7.116;2023-08-24T06:06:01;7.00;;;4.57;;
5333;SDS011;2689;50.954;7.116;2023-08-24T06:08:29;12.17;;;4.90;;
5333;SDS011;2689;50.954;7.116;2023-08-24T06:10:56;8.63;;;4.67;;
5333;SDS011;2689;50.954;7.116;2023-08-24T06:13:23;7.43;;;5.00;;
5333;SDS011;2689;50.954;7.116;2023-08-24T06:15:50;5.23;;;4.57;;
5333;SDS011;2689;50.954;7.116;2023-08-24T06:18:17;6.07;;;4.70;;
5333;SDS011;2689;50.954;7.116;2023-08-24T06:20:45;5.53;;;4.97;;
5333;SDS011;2689;50.954;7.116;2023-08-24T06:23:14;7.23;;;4.53;;
5333;SDS011;2689;50.954;7.116;2023-08-24T06:25:41;7.90;;;4.40;;
5333;SDS011;2689;50.954;7.116;2023-08-24T06:28:07;6.20;;;4.37;;
5333;SDS011;2689;50.954;7.116;2023-08-24T06:30:36;8.30;;;4.50;;
5333;SDS011;2689;50.954;7.116;2023-08-24T06:33:04;5.13;;;4.10;;
5333;SDS011;2689;50.954;7.116;2023-08-24T06:35:31;7.17;;;5.13;;
5333;SDS011;2689;50.954;7.116;2023-08-24T06:38:00;7.53;;;4.43;;
5333;SDS011;2689;50.954;7.116;2023-08-24T06:40:26;7.67;;;4.33;;
5333;SDS011;2689;50.954;7.116;2023-08-24T06:42:53;6.00;;;3.60;;
5333;SDS011;2689;50.954;7.116;2023-08-24T06:45:20;6.67;;;4.47;;
5333;SDS011;2689;50.954;7.116;2023-08-24T06:47:47;6.93;;;4.40;;
5333;SDS011;2689;50.954;7.116;2023-08-24T06:50:14;7.40;;;5.20;;
5333;SDS011;2689;50.954;7.116;2023-08-24T06:52:41;4.40;;;3.53;;
5333;SDS011;2689;50.954;7.116;2023-08-24T06:55:09;6.17;;;4.00;;
5333;SDS011;2689;50.954;7.116;2023-08-24T06:57:37;8.37;;;3.90;;
5333;SDS011;2689;50.954;7.116;2023-08-24T07:00:04;5.13;;;3.80;;
5333;SDS011;2689;50.954;7.116;2023-08-24T07:02:33;5.93;;;3.30;;
5333;SDS011;2689;50.954;7.116;2023-08-24T07:05:00;6.70;;;3.83;;
5333;SDS011;2689;50.954;7.116;2023-08-24T07:07:29;3.93;;;3.17;;
5333;SDS011;2689;50.954;7.116;2023-08-24T07:09:56;6.30;;;3.50;;
5333;SDS011;2689;50.954;7.116;2023-08-24T07:12:24;8.47;;;3.30;;
5333;SDS011;2689;50.954;7.116;2023-08-24T07:14:51;4.20;;;2.90;;
5333;SDS011;2689;50.954;7.116;2023-08-24T07:17:18;8.03;;;3.37;;
5333;SDS011;2689;50.954;7.116;2023-08-24T07:19:45;5.53;;;2.70;;
5333;SDS011;2689;50.954;7.116;2023-08-24T07:22:12;6.77;;;3.23;;
5333;SDS011;2689;50.954;7.116;2023-08-24T07:24:39;4.90;;;2.60;;
5333;SDS011;2689;50.954;7.116;2023-08-24T07:27:06;6.63;;;3.10;;
5333;SDS011;2689;50.954;7.116;2023-08-24T07:29:35;3.83;;;2.70;;
5333;SDS011;2689;50.954;7.116;2023-08-24T07:32:01;5.73;;;2.73;;
5333;SDS011;2689;50.954;7.116;2023-08-24T07:34:29;6.57;;;3.13;;
5333;SDS011;2689;50.954;7.116;2023-08-24T07:36:55;3.63;;;2.60;;
5333;SDS011;2689;50.954;7.116;2023-08-24T07:39:22;3.17;;;2.10;;
5333;SDS011;2689;50.954;7.116;2023-08-24T07:41:49;8.70;;;2.77;;
5333;SDS011;2689;50.954;7.116;2023-08-24T07:44:16;4.97;;;2.70;;
5333;SDS011;2689;50.954;7.116;2023-08-24T07:46:44;8.63;;;2.20;;
5333;SDS011;2689;50.954;7.116;2023-08-24T07:49:11;5.37;;;2.83;;
5333;SDS011;2689;50.954;7.116;2023-08-24T07:51:38;3.03;;;2.20;;
5333;SDS011;2689;50.954;7.116;2023-08-24T07:54:04;3.30;;;2.17;;
5333;SDS011;2689;50.954;7.116;2023-08-24T07:56:32;3.87;;;2.40;;
5333;SDS011;2689;50.954;7.116;2023-08-24T07:58:59;4.60;;;2.47;;
5333;SDS011;2689;50.954;7.116;2023-08-24T08:01:26;3.70;;;2.60;;
5333;SDS011;2689;50.954;7.116;2023-08-24T08:03:54;3.70;;;2.20;;
5333;SDS011;2689;50.954;7.116;2023-08-24T08:06:21;3.00;;;1.90;;
5333;SDS011;2689;50.954;7.116;2023-08-24T08:08:49;3.33;;;2.20;;
5333;SDS011;2689;50.954;7.116;2023-08-24T08:11:16;3.77;;;2.37;;
5333;SDS011;2689;50.954;7.116;2023-08-24T08:13:44;6.90;;;2.30;;
5333;SDS011;2689;50.954;7.116;2023-08-24T08:16:11;3.60;;;2.20;;
5333;SDS011;2689;50.954;7.116;2023-08-24T08:18:38;4.00;;;2.20;;
5333;SDS011;2689;50.954;7.116;2023-08-24T08:21:09;3.10;;;1.73;;
5333;SDS011;2689;50.954;7.116;2023-08-24T08:23:37;5.60;;;2.43;;
5333;SDS011;2689;50.954;7.116;2023-08-24T08:26:03;4.63;;;2.03;;
5333;SDS011;2689;50.954;7.116;2023-08-24T08:28:30;4.47;;;2.43;;
5333;SDS011;2689;50.954;7.116;2023-08-24T08:30:58;9.37;;;2.03;;
5333;SDS011;2689;50.954;7.116;2023-08-24T08:33:25;4.03;;;2.23;;
5333;SDS011;2689;50.954;7.116;2023-08-24T08:35:52;3.90;;;2.13;;
5333;SDS011;2689;50.954;7.116;2023-08-24T08:38:20;5.13;;;3.10;;
5333;SDS011;2689;50.954;7.116;2023-08-24T08:40:51;7.53;;;2.60;;
5333;SDS011;2689;50.954;7.116;2023-08-24T08:43:20;9.47;;;2.77;;
5333;SDS011;2689;50.954;7.116;2023-08-24T08:45:48;6.30;;;2.47;;
5333;SDS011;2689;50.954;7.116;2023-08-24T08:48:16;5.40;;;2.40;;
5333;SDS011;2689;50.954;7.116;2023-08-24T08:50:42;3.83;;;1.77;;
5333;SDS011;2689;50.954;7.116;2023-08-24T08:53:09;3.60;;;2.20;;
5333;SDS011;2689;50.954;7.116;2023-08-24T08:55:37;3.57;;;2.10;;
5333;SDS011;2689;50.954;7.116;2023-08-24T08:58:05;6.47;;;2.10;;
5333;SDS011;2689;50.954;7.116;2023-08-24T09:00:32;5.87;;;1.97;;
5333;SDS011;2689;50.954;7.116;2023-08-24T09:02:59;3.93;;;1.73;;
5333;SDS011;2689;50.954;7.116;2023-08-24T09:05:27;4.90;;;2.43;;
5333;SDS011;2689;50.954;7.116;2023-08-24T09:07:55;3.70;;;2.17;;
5333;SDS011;2689;50.954;7.116;2023-08-24T09:10:24;3.70;;;2.20;;
5333;SDS011;2689;50.954;7.116;2023-08-24T09:12:52;3.07;;;2.27;;
5333;SDS011;2689;50.954;7.116;2023-08-24T09:15:25;5.07;;;2.30;;
5333;SDS011;2689;50.954;7.116;2023-08-24T09:17:53;2.33;;;1.80;;
5333;SDS011;2689;50.954;7.116;2023-08-24T09:20:21;3.93;;;2.07;;
5333;SDS011;2689;50.954;7.116;2023-08-24T09:22:48;3.90;;;1.97;;
5333;SDS011;2689;50.954;7.116;2023-08-24T09:25:16;4.93;;;2.00;;
5333;SDS011;2689;50.954;7.116;2023-08-24T09:27:43;4.70;;;2.00;;
5333;SDS011;2689;50.954;7.116;2023-08-24T09:30:11;3.63;;;1.90;;
5333;SDS011;2689;50.954;7.116;2023-08-24T09:32:38;7.40;;;1.80;;
5333;SDS011;2689;50.954;7.116;2023-08-24T09:35:07;4.30;;;2.73;;
5333;SDS011;2689;50.954;7.116;2023-08-24T09:37:35;6.30;;;2.40;;
5333;SDS011;2689;50.954;7.116;2023-08-24T09:40:04;5.53;;;3.23;;
5333;SDS011;2689;50.954;7.116;2023-08-24T09:42:36;7.47;;;2.10;;
5333;SDS011;2689;50.954;7.116;2023-08-24T09:45:05;4.30;;;2.40;;
5333;SDS011;2689;50.954;7.116;2023-08-24T09:47:36;5.80;;;2.03;;
5333;SDS011;2689;50.954;7.116;2023-08-24T09:50:03;3.93;;;2.43;;
5333;SDS011;2689;50.954;7.116;2023-08-24T09:52:31;6.00;;;2.10;;
5333;SDS011;2689;50.954;7.116;2023-08-24T09:54:59;6.30;;;2.00;;
5333;SDS011;2689;50.954;7.116;2023-08-24T09:57:31;5.30;;;2.60;;
5333;SDS011;2689;50.954;7.116;2023-08-24T10:00:02;5.30;;;2.13;;
5333;SDS011;2689;50.954;7.116;2023-08-24T10:02:36;4.30;;;2.20;;
5333;SDS011;2689;50.954;7.116;2023-08-24T10:05:08;2.93;;;2.20;;
5333;SDS011;2689;50.954;7.116;2023-08-24T10:07:36;5.20;;;2.67;;
5333;SDS011;2689;50.954;7.116;2023-08-24T10:10:04;3.80;;;2.20;;
5333;SDS011;2689;50.954;7.116;2023-08-24T10:12:39;2.70;;;2.10;;
5333;SDS011;2689;50.954;7.116;2023-08-24T10:15:11;4.97;;;2.30;;
5333;SDS011;2689;50.954;7.116;2023-08-24T10:17:39;4.03;;;2.00;;
5333;SDS011;2689;50.954;7.116;2023-08-24T10:20:06;2.57;;;1.80;;
5333;SDS011;2689;50.954;7.116;2023-08-24T10:22:36;5.53;;;2.30;;
5333;SDS011;2689;50.954;7.116;2023-08-24T10:25:05;6.60;;;2.50;;
5333;SDS011;2689;50.954;7.116;2023-08-24T10:27:33;3.07;;;1.93;;
5333;SDS011;2689;50.954;7.116;2023-08-24T10:30:01;8.87;;;2.70;;
5333;SDS011;2689;50.954;7.116;2023-08-24T10:32:27;11.27;;;2.60;;
5333;SDS011;2689;50.954;7.116;2023-08-24T10:34:56;4.93;;;2.60;;
5333;SDS011;2689;50.954;7.116;2023-08-24T10:37:26;3.47;;;2.43;;
5333;SDS011;2689;50.954;7.116;2023-08-24T10:39:54;3.53;;;2.50;;
5333;SDS011;2689;50.954;7.116;2023-08-24T10:42:21;6.43;;;2.20;;
5333;SDS011;2689;50.954;7.116;2023-08-24T10:44:47;5.53;;;2.67;;
5333;SDS011;2689;50.954;7.116;2023-08-24T10:47:15;5.80;;;2.80;;
5333;SDS011;2689;50.954;7.116;2023-08-24T10:49:44;4.20;;;2.40;;
5333;SDS011;2689;50.954;7.116;2023-08-24T10:52:24;6.03;;;2.40;;
5333;SDS011;2689;50.954;7.116;2023-08-24T10:54:53;5.60;;;2.50;;
5333;SDS011;2689;50.954;7.116;2023-08-24T10:57:20;3.57;;;2.47;;
5333;SDS011;2689;50.954;7.116;2023-08-24T10:59:58;5.73;;;2.20;;
5333;SDS011;2689;50.954;7.116;2023-08-24T11:02:25;8.20;;;4.07;;
5333;SDS011;2689;50.954;7.116;2023-08-24T11:05:05;7.17;;;2.63;;
5333;SDS011;2689;50.954;7.116;2023-08-24T11:07:35;2.30;;;1.70;;
5333;SDS011;2689;50.954;7.116;2023-08-24T11:10:14;3.43;;;2.13;;
5333;SDS011;2689;50.954;7.116;2023-08-24T11:15:32;7.00;;;2.37;;
5333;SDS011;2689;50.954;7.116;2023-08-24T11:18:15;3.60;;;1.90;;
5333;SDS011;2689;50.954;7.116;2023-08-24T11:20:47;4.00;;;2.53;;
5333;SDS011;2689;50.954;7.116;2023-08-24T11:23:17;10.17;;;2.60;;
5333;SDS011;2689;50.954;7.116;2023-08-24T11:25:44;4.17;;;2.07;;
5333;SDS011;2689;50.954;7.116;2023-08-24T11:28:16;5.97;;;2.70;;
5333;SDS011;2689;50.954;7.116;2023-08-24T11:30:44;4.03;;;2.07;;
5333;SDS011;2689;50.954;7.116;2023-08-24T11:33:11;4.23;;;2.23;;
5333;SDS011;2689;50.954;7.116;2023-08-24T11:35:39;7.83;;;2.30;;
5333;SDS011;2689;50.954;7.116;2023-08-24T11:38:06;5.90;;;1.80;;
5333;SDS011;2689;50.954;7.116;2023-08-24T11:40:35;3.80;;;1.90;;
5333;SDS011;2689;50.954;7.116;2023-08-24T11:43:02;5.53;;;2.40;;
5333;SDS011;2689;50.954;7.116;2023-08-24T11:45:30;3.70;;;2.80;;
5333;SDS011;2689;50.954;7.116;2023-08-24T11:47:57;4.40;;;2.20;;
5333;SDS011;2689;50.954;7.116;2023-08-24T11:50:25;4.77;;;2.10;;
5333;SDS011;2689;50.954;7.116;2023-08-24T11:52:52;4.83;;;2.50;;
5333;SDS011;2689;50.954;7.116;2023-08-24T11:55:20;3.87;;;2.80;;
5333;SDS011;2689;50.954;7.116;2023-08-24T11:57:49;4.73;;;2.00;;
5333;SDS011;2689;50.954;7.116;2023-08-24T12:00:17;6.10;;;2.80;;
5333;SDS011;2689;50.954;7.116;2023-08-24T12:02:45;5.27;;;2.33;;
5333;SDS011;2689;50.954;7.116;2023-08-24T12:05:19;4.73;;;2.43;;
5333;SDS011;2689;50.954;7.116;2023-08-24T12:07:48;4.10;;;2.40;;
5333;SDS011;2689;50.954;7.116;2023-08-24T12:10:15;7.50;;;2.67;;
5333;SDS011;2689;50.954;7.116;2023-08-24T12:12:42;4.40;;;2.33;;
5333;SDS011;2689;50.954;7.116;2023-08-24T12:15:16;4.30;;;2.40;;
5333;SDS011;2689;50.954;7.116;2023-08-24T12:17:45;8.63;;;2.93;;
5333;SDS011;2689;50.954;7.116;2023-08-24T12:20:17;3.70;;;2.60;;
5333;SDS011;2689;50.954;7.116;2023-08-24T12:22:50;4.40;;;2.30;;
5333;SDS011;2689;50.954;7.116;2023-08-24T12:25:18;4.90;;;2.70;;
5333;SDS011;2689;50.954;7.116;2023-08-24T12:27:47;4.80;;;2.60;;
5333;SDS011;2689;50.954;7.116;2023-08-24T12:30:15;4.10;;;2.80;;
5333;SDS011;2689;50.954;7.116;2023-08-24T12:32:47;8.50;;;2.77;;
5333;SDS011;2689;50.954;7.116;2023-08-24T12:35:16;8.10;;;2.50;;
5333;SDS011;2689;50.954;7.116;2023-08-24T12:37:43;5.87;;;3.23;;
5333;SDS011;2689;50.954;7.116;2023-08-24T12:40:10;7.90;;;3.10;;
5333;SDS011;2689;50.954;7.116;2023-08-24T12:42:38;4.53;;;2.43;;
5333;SDS011;2689;50.954;7.116;2023-08-24T12:45:06;6.17;;;2.70;;
5333;SDS011;2689;50.954;7.116;2023-08-24T12:47:35;6.20;;;2.93;;
5333;SDS011;2689;50.954;7.116;2023-08-24T12:50:04;7.60;;;2.97;;
5333;SDS011;2689;50.954;7.116;2023-08-24T12:52:34;4.27;;;2.60;;
5333;SDS011;2689;50.954;7.116;2023-08-24T12:55:01;4.77;;;2.73;;
5333;SDS011;2689;50.954;7.116;2023-08-24T12:57:28;6.33;;;2.50;;
5333;SDS011;2689;50.954;7.116;2023-08-24T12:59:55;8.20;;;3.00;;
5333;SDS011;2689;50.954;7.116;2023-08-24T13:02:21;5.50;;;3.17;;
5333;SDS011;2689;50.954;7.116;2023-08-24T13:04:50;4.57;;;2.30;;
5333;SDS011;2689;50.954;7.116;2023-08-24T13:07:16;6.40;;;2.70;;
5333;SDS011;2689;50.954;7.116;2023-08-24T13:09:43;7.60;;;3.00;;
5333;SDS011;2689;50.954;7.116;2023-08-24T13:12:10;9.20;;;3.30;;
5333;SDS011;2689;50.954;7.116;2023-08-24T13:14:36;5.20;;;3.23;;
5333;SDS011;2689;50.954;7.116;2023-08-24T13:17:03;5.60;;;2.97;;
5333;SDS011;2689;50.954;7.116;2023-08-24T13:19:30;4.23;;;3.40;;
5333;SDS011;2689;50.954;7.116;2023-08-24T13:21:58;7.87;;;3.20;;
5333;SDS011;2689;50.954;7.116;2023-08-24T13:24:25;9.17;;;3.70;;
5333;SDS011;2689;50.954;7.116;2023-08-24T13:26:53;5.97;;;2.93;;
5333;SDS011;2689;50.954;7.116;2023-08-24T13:29:19;8.93;;;3.50;;
5333;SDS011;2689;50.954;7.116;2023-08-24T13:31:46;7.87;;;3.60;;
5333;SDS011;2689;50.954;7.116;2023-08-24T13:34:13;5.23;;;3.30;;
5333;SDS011;2689;50.954;7.116;2023-08-24T13:36:40;8.87;;;3.77;;
5333;SDS011;2689;50.954;7.116;2023-08-24T13:39:08;9.60;;;3.30;;
5333;SDS011;2689;50.954;7.116;2023-08-24T13:41:35;5.40;;;3.40;;
5333;SDS011;2689;50.954;7.116;2023-08-24T13:44:02;7.27;;;3.17;;
5333;SDS011;2689;50.954;7.116;2023-08-24T13:46:29;7.83;;;4.73;;
5333;SDS011;2689;50.954;7.116;2023-08-24T13:48:56;6.47;;;3.30;;
5333;SDS011;2689;50.954;7.116;2023-08-24T13:51:22;5.47;;;3.27;;
5333;SDS011;2689;50.954;7.116;2023-08-24T13:53:49;7.97;;;3.70;;
5333;SDS011;2689;50.954;7.116;2023-08-24T13:56:17;4.10;;;2.63;;
5333;SDS011;2689;50.954;7.116;2023-08-24T13:58:44;8.10;;;3.80;;
5333;SDS011;2689;50.954;7.116;2023-08-24T14:01:11;6.30;;;3.10;;
5333;SDS011;2689;50.954;7.116;2023-08-24T14:03:38;5.07;;;2.90;;
5333;SDS011;2689;50.954;7.116;2023-08-24T14:06:08;11.40;;;3.23;;
5333;SDS011;2689;50.954;7.116;2023-08-24T14:08:35;5.30;;;3.00;;
5333;SDS011;2689;50.954;7.116;2023-08-24T14:11:02;8.43;;;2.90;;
5333;SDS011;2689;50.954;7.116;2023-08-24T14:13:30;9.47;;;3.30;;
5333;SDS011;2689;50.954;7.116;2023-08-24T14:15:57;7.63;;;3.27;;
5333;SDS011;2689;50.954;7.116;2023-08-24T14:18:23;6.77;;;2.83;;
5333;SDS011;2689;50.954;7.116;2023-08-24T14:20:51;6.30;;;3.00;;
5333;SDS011;2689;50.954;7.116;2023-08-24T14:23:18;6.50;;;3.27;;
5333;SDS011;2689;50.954;7.116;2023-08-24T14:25:45;7.93;;;3.50;;
5333;SDS011;2689;50.954;7.116;2023-08-24T14:28:13;9.20;;;3.53;;
5333;SDS011;2689;50.954;7.116;2023-08-24T14:30:41;5.47;;;3.00;;
5333;SDS011;2689;50.954;7.116;2023-08-24T14:33:08;5.83;;;2.90;;
5333;SDS011;2689;50.954;7.116;2023-08-24T14:35:37;10.50;;;3.63;;
5333;SDS011;2689;50.954;7.116;2023-08-24T14:38:04;10.50;;;3.67;;
5333;SDS011;2689;50.954;7.116;2023-08-24T14:40:30;6.70;;;3.30;;
5333;SDS011;2689;50.954;7.116;2023-08-24T14:42:57;5.80;;;2.83;;
5333;SDS011;2689;50.954;7.116;2023-08-24T14:45:24;6.13;;;3.00;;
5333;SDS011;2689;50.954;7.116;2023-08-24T14:47:52;8.30;;;3.40;;
5333;SDS011;2689;50.954;7.116;2023-08-24T14:50:19;5.07;;;3.40;;
5333;SDS011;2689;50.954;7.116;2023-08-24T14:52:45;5.67;;;3.40;;
5333;SDS011;2689;50.954;7.116;2023-08-24T14:55:12;7.43;;;3.57;;
5333;SDS011;2689;50.954;7.116;2023-08-24T14:57:39;6.57;;;2.93;;
5333;SDS011;2689;50.954;7.116;2023-08-24T15:00:06;6.17;;;3.30;;
5333;SDS011;2689;50.954;7.116;2023-08-24T15:02:35;6.90;;;3.23;;
5333;SDS011;2689;50.954;7.116;2023-08-24T15:05:04;7.70;;;3.40;;
5333;SDS011;2689;50.954;7.116;2023-08-24T15:07:31;8.03;;;3.60;;
5333;SDS011;2689;50.954;7.116;2023-08-24T15:09:58;5.10;;;3.10;;
5333;SDS011;2689;50.954;7.116;2023-08-24T15:12:25;7.77;;;3.43;;
5333;SDS011;2689;50.954;7.116;2023-08-24T15:14:58;5.53;;;3.80;;
5333;SDS011;2689;50.954;7.116;2023-08-24T15:17:26;6.37;;;2.90;;
5333;SDS011;2689;50.954;7.116;2023-08-24T15:19:55;6.33;;;3.30;;
5333;SDS011;2689;50.954;7.116;2023-08-24T15:22:23;8.13;;;3.63;;